Time;durP1;ratioP1;P1;durP2;ratioP2;P2;SDS_P1;SDS_P2;PMS_P1;PMS_P2;Temp;Humidity;BMP_temperature;BMP_pressure;BME280_temperature;BME280_humidity;BME280_pressure;Samples;Min_cycle;Max_cycle;Signal;HPM_P1;HPM_P2
2022/12/24 00:01:05;;;;;;;13.10;3.05;;;;;;;19.19;46.63;100567.41;5000859;28;21206;-69
2022/12/24 00:03:31;;;;;;;11.15;3.58;;;;;;;19.19;46.68;100569.25;4995936;28;20515;-66
2022/12/24 00:05:56;;;;;;;9.38;3.25;;;;;;;19.18;46.49;100560.50;5003430;28;20124;-65
2022/12/24 00:08:22;;;;;;;11.05;3.15;;;;;;;19.17;46.61;100555.34;5004481;28;20144;-65
2022/12/24 00:10:52;;;;;;;10.68;3.28;;;;;;;19.15;46.75;100567.84;5000834;28;20038;-68
2022/12/24 00:13:18;;;;;;;9.45;2.72;;;;;;;19.17;46.75;100565.91;5004177;28;20038;-67
2022/12/24 00:15:44;;;;;;;9.82;2.88;;;;;;;19.17;46.82;100572.00;4997249;28;20045;-66
2022/12/24 00:18:09;;;;;;;10.23;2.92;;;;;;;19.14;46.66;100569.66;4995996;28;20026;-66
2022/12/24 00:20:34;;;;;;;9.40;2.83;;;;;;;19.16;46.75;100575.63;4996465;28;20577;-66
2022/12/24 00:23:00;;;;;;;10.88;3.03;;;;;;;19.15;46.80;100587.19;4984960;28;20026;-67
2022/12/24 00:25:25;;;;;;;12.20;3.17;;;;;;;19.11;46.80;100585.78;4984338;28;20042;-66
2022/12/24 00:27:50;;;;;;;11.50;3.40;;;;;;;19.12;46.61;100586.59;4984584;28;20050;-66
2022/12/24 00:30:15;;;;;;;10.65;3.28;;;;;;;19.12;46.59;100584.81;4999074;28;20049;-66
2022/12/24 00:32:41;;;;;;;10.13;2.60;;;;;;;19.10;46.42;100589.38;4984378;28;20038;-66
2022/12/24 00:35:06;;;;;;;10.82;3.20;;;;;;;19.08;46.43;100590.50;4983926;28;20069;-67
2022/12/24 00:37:32;;;;;;;10.10;2.63;;;;;;;19.11;46.59;100598.97;4999531;28;20029;-66
2022/12/24 00:39:57;;;;;;;9.55;2.63;;;;;;;19.10;46.55;100596.47;4984696;28;20042;-65
2022/12/24 00:42:22;;;;;;;11.57;2.97;;;;;;;19.08;46.65;100596.59;5002528;28;20492;-65
2022/12/24 00:44:47;;;;;;;10.27;2.67;;;;;;;19.05;46.61;100606.63;5003655;28;20282;-66
2022/12/24 00:47:13;;;;;;;12.68;3.10;;;;;;;19.07;46.49;100615.22;4990044;28;20303;-68
2022/12/24 00:49:38;;;;;;;10.07;2.97;;;;;;;19.06;46.46;100619.69;4986520;28;20797;-65
2022/12/24 00:52:03;;;;;;;12.07;3.00;;;;;;;19.05;46.56;100622.47;4999380;28;20034;-68
2022/12/24 00:54:29;;;;;;;9.50;3.22;;;;;;;19.03;46.37;100633.16;4999137;28;20743;-66
2022/12/24 00:56:54;;;;;;;9.38;3.20;;;;;;;19.00;46.52;100628.16;4996570;28;20275;-66
2022/12/24 00:59:19;;;;;;;11.55;2.75;;;;;;;18.98;46.55;100625.66;4997918;28;20034;-68
2022/12/24 01:01:45;;;;;;;10.70;3.03;;;;;;;19.01;46.44;100635.13;4984034;28;20130;-66
2022/12/24 01:06:54;;;;;;;11.30;3.08;;;;;;;19.00;46.48;100646.63;4991240;28;20045;-67
2022/12/24 01:09:20;;;;;;;12.02;3.10;;;;;;;18.96;46.43;100642.59;4997160;28;20042;-67
2022/12/24 01:11:45;;;;;;;12.30;2.97;;;;;;;18.95;46.23;100635.66;4989235;28;20395;-66
2022/12/24 01:14:11;;;;;;;9.52;3.28;;;;;;;18.97;46.25;100645.09;4998253;28;20029;-67
2022/12/24 01:16:36;;;;;;;10.68;3.47;;;;;;;18.97;46.24;100646.91;5001982;28;20100;-66
2022/12/24 01:19:01;;;;;;;9.20;3.45;;;;;;;18.96;46.38;100653.16;4987791;28;20034;-66
2022/12/24 01:21:27;;;;;;;10.90;3.15;;;;;;;18.92;46.20;100652.59;4995162;28;20511;-67
2022/12/24 01:23:52;;;;;;;10.77;2.78;;;;;;;18.90;46.29;100654.53;4997322;28;20034;-67
2022/12/24 01:26:17;;;;;;;10.43;2.92;;;;;;;18.94;46.15;100665.66;4988017;28;20057;-67
2022/12/24 01:28:42;;;;;;;11.85;3.38;;;;;;;18.93;46.24;100669.25;4988826;28;20113;-68
2022/12/24 01:31:14;;;;;;;12.23;3.10;;;;;;;18.88;46.30;100671.47;4991847;28;20053;-66
2022/12/24 01:33:40;;;;;;;11.15;3.13;;;;;;;18.91;46.17;100669.38;4992616;28;20069;-66
2022/12/24 01:36:06;;;;;;;11.48;3.35;;;;;;;18.90;46.26;100673.03;4995569;28;20034;-68
2022/12/24 01:38:31;;;;;;;12.57;3.53;;;;;;;18.86;45.97;100671.59;4984840;28;20034;-68
2022/12/24 01:43:40;;;;;;;10.98;2.60;;;;;;;18.86;46.21;100671.59;4994078;28;20044;-68
2022/12/24 01:46:14;;;;;;;11.70;3.00;;;;;;;18.85;45.99;100686.63;4991262;28;20038;-68
2022/12/24 01:48:53;;;;;;;9.88;2.97;;;;;;;18.88;46.34;100692.59;4985261;28;20048;-67
2022/12/24 01:51:38;;;;;;;9.18;3.08;;;;;;;18.76;46.11;100674.19;4984349;28;20173;-66
2022/12/24 01:54:09;;;;;;;10.27;3.10;;;;;;;18.81;46.07;100685.16;4987544;28;20069;-67
2022/12/24 01:56:38;;;;;;;12.57;3.05;;;;;;;18.84;46.20;100692.84;4988765;28;20034;-66
2022/12/24 01:59:07;;;;;;;11.02;3.40;;;;;;;18.84;46.02;100689.41;4982882;28;20034;-66
2022/12/24 02:01:33;;;;;;;10.88;3.03;;;;;;;18.79;46.31;100681.84;4982791;28;20038;-67
2022/12/24 02:04:00;;;;;;;11.27;3.08;;;;;;;18.84;46.02;100705.25;4983180;28;20064;-67
2022/12/24 02:06:26;;;;;;;9.52;2.90;;;;;;;18.82;45.99;100700.06;4988335;28;20046;-67
2022/12/24 02:08:51;;;;;;;11.68;3.30;;;;;;;18.80;45.92;100694.09;4994151;28;20560;-65
2022/12/24 02:11:19;;;;;;;11.02;3.00;;;;;;;18.75;46.32;100704.19;4999671;28;20038;-68
2022/12/24 02:13:57;;;;;;;11.27;3.50;;;;;;;18.77;46.19;100707.53;4991680;28;20038;-67
2022/12/24 02:16:38;;;;;;;11.82;3.15;;;;;;;18.79;46.11;100716.16;4989671;28;20030;-68
2022/12/24 02:19:04;;;;;;;9.63;2.78;;;;;;;18.80;46.22;100719.63;4998586;28;20032;-67
2022/12/24 02:21:53;;;;;;;9.57;3.27;;;;;;;18.79;46.42;100715.34;4997907;28;20335;-66
2022/12/24 02:24:22;;;;;;;10.40;3.30;;;;;;;18.78;46.13;100724.22;4985137;28;20267;-66
2022/12/24 02:26:47;;;;;;;10.15;2.97;;;;;;;18.78;46.15;100721.56;4987696;28;20048;-67
2022/12/24 02:29:32;;;;;;;10.70;2.80;;;;;;;18.77;46.36;100725.16;4993884;28;20030;-66
2022/12/24 02:32:02;;;;;;;10.43;3.03;;;;;;;18.73;46.11;100716.69;4994894;28;21189;-65
2022/12/24 02:34:36;;;;;;;9.88;2.90;;;;;;;18.76;46.26;100728.78;4997483;28;20083;-67
2022/12/24 02:37:04;;;;;;;9.63;3.53;;;;;;;18.77;46.40;100738.38;4990779;28;20398;-68
2022/12/24 02:39:42;;;;;;;13.20;3.05;;;;;;;18.74;46.11;100736.84;4992539;28;20030;-65
2022/12/24 02:42:10;;;;;;;11.27;3.15;;;;;;;18.72;46.43;100722.09;4999814;28;20069;-65
2022/12/24 02:44:42;;;;;;;14.00;3.00;;;;;;;18.68;46.44;100732.91;4992115;28;20094;-67
2022/12/24 02:47:09;;;;;;;12.50;3.25;;;;;;;18.74;46.18;100736.84;4992838;28;20038;-67
2022/12/24 02:49:35;;;;;;;12.55;3.30;;;;;;;18.70;46.24;100732.78;4992623;28;20136;-68
2022/12/24 02:52:01;;;;;;;13.68;3.80;;;;;;;18.74;46.33;100735.97;4993172;28;20049;-66
2022/12/24 02:54:26;;;;;;;10.52;3.08;;;;;;;18.72;46.60;100738.75;4996984;28;20034;-67
2022/12/24 02:57:14;;;;;;;11.88;2.78;;;;;;;18.73;46.42;100735.16;5001153;28;20034;-67
2022/12/24 03:00:00;;;;;;;10.35;3.28;;;;;;;18.73;46.26;100743.09;4995229;28;21125;-68
2022/12/24 03:02:47;;;;;;;8.55;2.53;;;;;;;18.70;46.22;100732.78;5001406;28;20072;-68
2022/12/24 03:05:24;;;;;;;9.48;2.90;;;;;;;18.71;46.61;100741.53;4987436;28;20034;-68
2022/12/24 03:07:56;;;;;;;12.63;3.55;;;;;;;18.72;46.54;100741.41;4981747;28;20046;-67
2022/12/24 03:10:59;;;;;;;10.50;3.10;;;;;;;18.74;46.46;100751.81;4983841;28;20034;-69
2022/12/24 03:13:27;;;;;;;11.48;3.03;;;;;;;18.73;46.44;100750.19;4989196;28;20113;-68
2022/12/24 03:15:52;;;;;;;11.77;3.00;;;;;;;18.69;46.58;100746.94;4999582;28;20157;-67
2022/12/24 03:18:21;;;;;;;12.48;3.08;;;;;;;18.70;46.76;100743.34;5001092;28;20482;-67
2022/12/24 03:20:53;;;;;;;11.32;2.92;;;;;;;18.66;46.69;100741.94;4981817;28;21072;-68
2022/12/24 03:23:18;;;;;;;10.50;2.90;;;;;;;18.68;46.53;100746.09;4988699;28;20117;-67
2022/12/24 03:25:44;;;;;;;7.70;2.67;;;;;;;18.71;46.55;100752.09;4999737;28;20140;-66
2022/12/24 03:28:13;;;;;;;12.50;3.45;;;;;;;18.70;46.51;100758.34;5000799;28;20108;-67
2022/12/24 03:30:40;;;;;;;8.60;2.65;;;;;;;18.69;46.60;100752.22;5000910;28;20141;-67
2022/12/24 03:33:05;;;;;;;10.13;2.90;;;;;;;18.68;46.57;100753.19;4995953;28;20038;-67
2022/12/24 03:35:30;;;;;;;8.13;2.65;;;;;;;18.66;46.87;100752.50;4996293;28;20050;-66
2022/12/24 03:37:56;;;;;;;9.15;3.00;;;;;;;18.64;46.80;100754.41;4981730;28;20038;-66
2022/12/24 03:40:21;;;;;;;9.07;3.05;;;;;;;18.68;46.52;100766.41;4981590;28;20084;-65
2022/12/24 03:42:46;;;;;;;11.18;2.85;;;;;;;18.68;46.47;100767.22;4983299;28;20045;-66
2022/12/24 03:45:12;;;;;;;10.27;2.60;;;;;;;18.66;46.59;100763.06;4981510;28;20100;-67
2022/12/24 03:47:37;;;;;;;10.73;3.13;;;;;;;18.64;46.59;100764.97;4991922;28;20034;-67
2022/12/24 03:50:03;;;;;;;11.77;3.08;;;;;;;18.63;46.49;100769.44;4985108;28;20851;-67
2022/12/24 03:52:28;;;;;;;11.55;3.35;;;;;;;18.62;46.50;100767.75;4981548;28;20080;-67
2022/12/24 03:54:53;;;;;;;9.73;2.72;;;;;;;18.63;46.58;100764.16;4985955;28;20425;-68
2022/12/24 03:57:18;;;;;;;9.70;2.88;;;;;;;18.64;46.62;100772.91;4990510;28;20030;-66
2022/12/24 03:59:44;;;;;;;11.07;3.22;;;;;;;18.65;46.50;100774.56;4985734;28;20826;-66
2022/12/24 04:02:09;;;;;;;12.10;3.40;;;;;;;18.64;46.77;100770.25;4985790;28;20044;-66
2022/12/24 04:04:36;;;;;;;9.13;3.00;;;;;;;18.61;46.71;100771.38;4986123;28;20057;-66
2022/12/24 04:07:03;;;;;;;10.07;2.58;;;;;;;18.61;46.77;100774.00;4999545;28;20799;-66
2022/12/24 04:09:28;;;;;;;10.35;2.90;;;;;;;18.62;46.63;100774.84;4985005;28;20030;-66
2022/12/24 04:11:53;;;;;;;8.20;2.60;;;;;;;18.62;46.75;100769.56;4984928;28;20041;-66
2022/12/24 04:14:19;;;;;;;10.02;3.05;;;;;;;18.62;46.67;100782.75;4984788;28;20065;-67
2022/12/24 04:16:44;;;;;;;8.70;2.60;;;;;;;18.60;46.71;100782.06;4988167;28;20041;-67
2022/12/24 04:19:09;;;;;;;8.40;2.50;;;;;;;18.59;46.85;100783.00;4986525;28;21179;-66
2022/12/24 04:21:34;;;;;;;10.23;2.95;;;;;;;18.58;46.84;100779.53;4984853;28;20272;-66
2022/12/24 04:24:00;;;;;;;8.10;2.67;;;;;;;18.60;46.88;100782.06;4986005;28;20947;-68
2022/12/24 04:26:25;;;;;;;9.55;2.53;;;;;;;18.60;46.84;100798.72;4997227;28;20036;-66
2022/12/24 04:28:50;;;;;;;8.27;2.40;;;;;;;18.57;46.86;100795.50;5001054;28;20042;-66
2022/12/24 04:31:16;;;;;;;8.55;2.75;;;;;;;18.56;46.70;100793.81;4984490;28;20048;-68
2022/12/24 04:33:42;;;;;;;10.32;2.88;;;;;;;18.56;46.75;100794.66;4988487;28;20041;-65
2022/12/24 04:36:14;;;;;;;8.85;2.70;;;;;;;18.58;46.92;100813.84;5003612;28;20330;-68
2022/12/24 04:38:39;;;;;;;9.90;2.35;;;;;;;18.60;46.98;100816.38;4993571;28;20038;-69
2022/12/24 04:41:07;;;;;;;9.60;2.53;;;;;;;18.58;47.14;100805.94;4988958;28;20044;-67
2022/12/24 04:43:33;;;;;;;6.57;2.45;;;;;;;18.57;46.92;100812.16;4993870;28;20116;-67
2022/12/24 04:46:08;;;;;;;10.02;2.85;;;;;;;18.56;46.99;100799.94;4984432;28;20590;-66
2022/12/24 04:48:34;;;;;;;9.00;3.08;;;;;;;18.59;47.08;100812.03;4984285;28;20505;-68
2022/12/24 04:51:03;;;;;;;8.48;2.50;;;;;;;18.58;46.86;100805.94;4984477;28;20077;-67
2022/12/24 04:53:29;;;;;;;9.27;2.17;;;;;;;18.58;46.69;100805.94;4984306;28;20034;-66
2022/12/24 04:55:54;;;;;;;11.65;2.90;;;;;;;18.58;46.98;100810.34;4986536;28;20494;-67
2022/12/24 04:58:19;;;;;;;9.63;2.50;;;;;;;18.56;46.98;100809.66;5003607;28;20107;-66
2022/12/24 05:00:45;;;;;;;8.73;2.42;;;;;;;18.55;46.87;100814.09;5003545;28;20470;-68
2022/12/24 05:03:10;;;;;;;10.27;2.90;;;;;;;18.54;46.95;100817.69;5003513;28;20117;-67
2022/12/24 05:05:35;;;;;;;9.70;2.67;;;;;;;18.57;46.88;100821.91;5003107;28;20466;-67
2022/12/24 05:08:00;;;;;;;7.45;2.30;;;;;;;18.55;46.72;100815.88;4986001;28;20035;-66
2022/12/24 05:10:26;;;;;;;9.82;2.47;;;;;;;18.51;47.02;100814.50;4983713;28;20042;-66
2022/12/24 05:12:51;;;;;;;8.43;2.55;;;;;;;18.54;46.87;100836.19;4983993;28;20122;-68
2022/12/24 05:15:16;;;;;;;9.35;2.55;;;;;;;18.55;46.81;100829.94;4983144;28;20034;-67
2022/12/24 05:17:42;;;;;;;8.70;2.58;;;;;;;18.54;46.75;100825.63;4997055;28;20486;-65
2022/12/24 05:20:07;;;;;;;11.40;3.10;;;;;;;18.54;46.83;100824.78;5002848;28;20033;-65
2022/12/24 05:28:00;;;;;;;9.07;2.83;;;;;;;18.48;46.91;100805.88;5003265;28;20045;-67
2022/12/24 05:30:25;;;;;;;10.48;3.00;;;;;;;18.53;46.99;100823.94;5000921;28;20445;-68
2022/12/24 05:32:50;;;;;;;9.07;2.58;;;;;;;18.51;46.84;100823.22;5002951;28;20117;-66
2022/12/24 05:35:16;;;;;;;7.80;2.53;;;;;;;18.50;47.06;100816.31;4992729;28;20128;-66
2022/12/24 05:37:41;;;;;;;9.77;2.88;;;;;;;18.52;46.97;100824.91;4983336;28;20057;-65
2022/12/24 05:40:07;;;;;;;8.38;2.38;;;;;;;18.53;47.07;100828.38;4991527;28;20108;-66
2022/12/24 05:42:32;;;;;;;11.18;3.53;;;;;;;18.51;46.69;100822.41;5002928;28;20482;-65
2022/12/24 05:44:58;;;;;;;9.90;2.65;;;;;;;18.51;46.97;100833.78;4984682;28;20045;-67
2022/12/24 05:47:23;;;;;;;8.03;2.30;;;;;;;18.52;47.05;100837.25;4988213;28;20037;-66
2022/12/24 05:49:48;;;;;;;8.52;2.40;;;;;;;18.52;46.60;100850.44;5002282;28;20259;-67
2022/12/24 05:52:13;;;;;;;9.73;2.40;;;;;;;18.49;46.95;100852.38;5002726;28;20149;-67
2022/12/24 05:54:39;;;;;;;10.02;2.75;;;;;;;18.46;46.85;100857.91;4994831;28;20414;-66
2022/12/24 05:57:04;;;;;;;9.25;2.63;;;;;;;18.48;46.84;100863.94;5002622;28;20030;-67
2022/12/24 05:59:29;;;;;;;9.73;2.65;;;;;;;18.49;46.90;100856.84;4997250;28;20486;-66
2022/12/24 06:01:55;;;;;;;10.32;2.88;;;;;;;18.48;46.84;100855.16;4982840;28;20106;-67
2022/12/24 06:04:20;;;;;;;7.53;2.53;;;;;;;18.40;46.95;100854.97;4982875;28;20082;-67
2022/12/24 06:06:45;;;;;;;8.52;2.20;;;;;;;18.50;46.81;100866.44;4994306;28;20033;-65
2022/12/24 06:09:11;;;;;;;6.50;1.90;;;;;;;18.47;46.63;100864.88;5002010;28;20537;-66
2022/12/24 06:11:36;;;;;;;7.53;2.40;;;;;;;18.48;46.77;100858.66;4999806;28;20030;-68
2022/12/24 06:14:01;;;;;;;9.25;2.53;;;;;;;18.49;46.55;100857.66;4989657;28;20561;-68
2022/12/24 06:16:26;;;;;;;7.40;1.98;;;;;;;18.51;46.73;100857.53;4995647;28;20057;-68
2022/12/24 06:18:52;;;;;;;9.90;2.60;;;;;;;18.54;46.86;100856.47;4985374;28;20045;-68
2022/12/24 06:21:18;;;;;;;7.45;2.00;;;;;;;18.57;46.71;100875.50;4987132;28;20038;-67
2022/12/24 06:23:44;;;;;;;10.60;2.85;;;;;;;18.60;47.05;100869.97;4989700;28;20082;-68
2022/12/24 06:26:15;;;;;;;7.10;2.13;;;;;;;18.61;46.87;100871.66;5001406;28;20147;-67
2022/12/24 06:28:41;;;;;;;9.25;2.22;;;;;;;18.64;47.01;100873.19;4999499;28;20033;-67
2022/12/24 06:31:11;;;;;;;10.80;2.63;;;;;;;18.69;46.52;100884.19;4983384;28;20054;-67
2022/12/24 06:33:37;;;;;;;8.02;2.00;;;;;;;18.70;46.86;100880.63;4982565;28;20030;-67
2022/12/24 06:36:06;;;;;;;10.98;2.45;;;;;;;18.72;46.62;100889.22;4983611;28;20077;-66
2022/12/24 06:38:31;;;;;;;9.48;2.38;;;;;;;18.73;46.68;100883.00;5001243;28;20048;-68
2022/12/24 06:40:57;;;;;;;8.13;2.40;;;;;;;18.79;46.65;100890.41;4997118;28;20030;-68
2022/12/24 06:43:22;;;;;;;8.35;2.40;;;;;;;18.82;46.63;100894.63;5001547;28;20038;-66
2022/12/24 06:45:47;;;;;;;7.90;2.30;;;;;;;18.88;46.69;100898.56;4990301;28;20518;-67
2022/12/24 06:48:14;;;;;;;10.07;2.63;;;;;;;18.88;46.77;100896.75;4982006;28;20042;-68
2022/12/24 06:50:40;;;;;;;6.68;2.17;;;;;;;18.92;46.58;100892.06;4994721;28;20030;-68
2022/12/24 06:53:05;;;;;;;8.60;2.15;;;;;;;18.92;46.59;100890.25;5001285;28;20042;-68
2022/12/24 06:55:31;;;;;;;8.38;2.25;;;;;;;18.94;46.48;100905.97;4985812;28;20045;-65
2022/12/24 06:57:56;;;;;;;8.75;2.00;;;;;;;18.96;46.21;100901.38;4995990;28;20030;-66
2022/12/24 07:00:22;;;;;;;7.93;2.53;;;;;;;18.97;46.36;100905.72;4986577;28;20040;-67
2022/12/24 07:02:47;;;;;;;7.90;2.20;;;;;;;18.99;46.25;100911.69;4989573;28;20101;-67
2022/12/24 07:05:13;;;;;;;9.35;2.38;;;;;;;19.01;46.23;100920.34;4982621;28;20113;-65
2022/12/24 07:07:40;;;;;;;11.32;2.50;;;;;;;18.98;46.52;100915.31;4991663;28;20046;-68
2022/12/24 07:10:09;;;;;;;6.60;1.88;;;;;;;18.97;46.24;100919.75;4981651;28;20125;-66
2022/12/24 07:12:34;;;;;;;6.68;2.30;;;;;;;18.97;46.05;100921.56;4981830;28;20035;-67
2022/12/24 07:14:59;;;;;;;8.95;2.45;;;;;;;18.96;46.32;100917.22;4988004;28;20049;-67
2022/12/24 07:17:25;;;;;;;10.25;2.65;;;;;;;19.01;46.17;100917.72;4989324;28;20148;-68
2022/12/24 07:19:50;;;;;;;8.23;2.10;;;;;;;18.97;46.11;100924.19;5001202;28;20071;-67
2022/12/24 07:22:15;;;;;;;9.70;2.30;;;;;;;18.97;46.11;100916.28;4988369;28;20091;-67
2022/12/24 07:24:40;;;;;;;10.18;2.63;;;;;;;18.96;46.18;100918.09;5001017;28;20619;-68
2022/12/24 07:27:06;;;;;;;9.40;2.50;;;;;;;18.95;46.04;100926.97;5000936;28;20480;-67
2022/12/24 07:29:31;;;;;;;8.60;2.00;;;;;;;18.98;45.83;100928.53;4992199;28;20270;-67
2022/12/24 07:31:56;;;;;;;8.85;2.72;;;;;;;18.99;46.06;100931.03;5000836;28;20038;-67
2022/12/24 07:34:21;;;;;;;8.50;2.87;;;;;;;18.95;45.74;100939.34;5000683;28;20074;-67
2022/12/24 07:36:47;;;;;;;8.32;2.55;;;;;;;18.99;45.74;100948.66;4987260;28;20267;-68
2022/12/24 07:39:12;;;;;;;7.53;2.70;;;;;;;18.94;45.93;100950.88;4992028;28;21356;-67
2022/12/24 07:41:37;;;;;;;7.88;2.35;;;;;;;18.99;46.02;100948.66;5004927;28;20267;-67
2022/12/24 07:44:03;;;;;;;9.27;2.47;;;;;;;18.98;45.76;100953.13;4989869;28;20030;-67
2022/12/24 07:46:28;;;;;;;8.57;2.72;;;;;;;18.95;45.77;100948.09;5002305;28;20100;-68
2022/12/24 07:48:53;;;;;;;8.52;2.30;;;;;;;18.94;45.74;100951.69;5002341;28;20036;-66
2022/12/24 07:51:19;;;;;;;10.70;3.05;;;;;;;18.98;46.00;100966.34;4991604;28;20037;-67
2022/12/24 07:53:46;;;;;;;8.85;2.67;;;;;;;18.98;45.75;100974.25;4985350;28;20046;-67
2022/12/24 07:56:14;;;;;;;11.18;3.30;;;;;;;18.94;45.60;100970.19;4984730;28;20101;-68
2022/12/24 07:58:39;;;;;;;9.52;2.10;;;;;;;18.94;45.91;100975.47;4984950;28;20038;-67
2022/12/24 08:01:05;;;;;;;13.15;3.10;;;;;;;18.96;46.02;100983.25;4993485;28;20037;-68
2022/12/24 08:03:30;;;;;;;10.90;2.65;;;;;;;18.95;45.63;100992.16;5004386;28;21135;-66
2022/12/24 08:05:57;;;;;;;9.40;2.70;;;;;;;18.95;45.64;100992.16;5004504;28;20410;-68
2022/12/24 08:08:22;;;;;;;8.63;2.67;;;;;;;18.85;45.72;100978.88;5004389;28;20030;-68
2022/12/24 08:10:47;;;;;;;9.52;2.78;;;;;;;18.96;45.84;100994.69;5004058;28;20045;-68
2022/12/24 08:13:13;;;;;;;10.13;2.13;;;;;;;18.97;45.92;101004.25;5004369;28;20034;-67
2022/12/24 08:15:39;;;;;;;8.80;2.60;;;;;;;18.94;45.98;101011.59;5004186;28;20720;-68
2022/12/24 08:18:04;;;;;;;9.57;2.65;;;;;;;18.94;45.89;101009.78;5004427;28;20034;-67
2022/12/24 08:20:29;;;;;;;8.55;2.88;;;;;;;18.94;45.94;101014.25;5004124;28;20030;-68
2022/12/24 08:22:55;;;;;;;10.57;2.45;;;;;;;18.93;45.74;101013.41;4989291;28;20030;-68
2022/12/24 08:25:20;;;;;;;10.53;3.30;;;;;;;18.98;46.03;101026.25;4995667;28;20038;-72
2022/12/24 08:27:46;;;;;;;8.00;2.50;;;;;;;18.95;46.09;101021.22;5001660;28;20346;-67
2022/12/24 08:30:12;;;;;;;8.00;2.40;;;;;;;18.95;45.86;101024.69;4997512;28;20297;-68
2022/12/24 08:32:37;;;;;;;9.20;2.40;;;;;;;19.00;46.13;101034.88;4984585;28;20109;-69
2022/12/24 08:35:03;;;;;;;9.13;2.60;;;;;;;18.98;46.39;101037.66;5002449;28;20129;-66
2022/12/24 08:37:29;;;;;;;9.52;2.72;;;;;;;19.02;46.44;101051.44;4995475;28;20104;-67
2022/12/24 08:39:54;;;;;;;8.90;2.50;;;;;;;19.02;46.66;101048.78;5003502;28;20131;-67
2022/12/24 08:42:19;;;;;;;11.37;2.27;;;;;;;18.98;46.89;101040.28;4994475;28;20041;-66
2022/12/24 08:44:45;;;;;;;9.45;2.40;;;;;;;19.04;46.71;101036.28;4997184;28;20763;-65
2022/12/24 08:47:10;;;;;;;8.40;2.35;;;;;;;19.08;46.71;101044.81;5003728;28;20037;-67
2022/12/24 08:49:35;;;;;;;11.50;3.10;;;;;;;19.07;46.69;101051.06;5002359;28;20045;-65
2022/12/24 08:52:00;;;;;;;11.75;2.92;;;;;;;19.06;46.42;101050.22;5004121;28;20033;-68
2022/12/24 08:54:26;;;;;;;9.43;2.80;;;;;;;19.05;46.77;101058.28;5001685;28;20478;-66
2022/12/24 08:56:51;;;;;;;9.90;2.70;;;;;;;19.05;46.74;101056.47;4999263;28;20260;-67
2022/12/24 08:59:16;;;;;;;10.90;3.15;;;;;;;19.04;46.62;101054.78;4983859;28;20046;-68
2022/12/24 09:01:42;;;;;;;11.07;2.70;;;;;;;19.03;46.80;101053.94;4984254;28;20057;-66
2022/12/24 09:04:08;;;;;;;10.38;2.50;;;;;;;19.05;47.07;101056.47;4984009;28;20045;-67
2022/12/24 09:06:34;;;;;;;10.60;3.00;;;;;;;19.07;47.35;101065.09;4983748;28;20145;-68
2022/12/24 09:08:59;;;;;;;12.52;2.78;;;;;;;19.10;47.43;101077.22;5000540;28;20044;-65
2022/12/24 09:11:24;;;;;;;11.70;3.35;;;;;;;19.08;47.23;101073.88;5002919;28;20041;-66
2022/12/24 09:13:50;;;;;;;10.25;2.80;;;;;;;19.07;47.45;101080.94;4989724;28;20034;-67
2022/12/24 09:16:15;;;;;;;9.30;2.50;;;;;;;19.06;47.45;101076.63;4983540;28;20035;-68
2022/12/24 09:18:41;;;;;;;9.90;2.70;;;;;;;19.10;47.34;101096.53;4983685;28;20437;-65
2022/12/24 09:21:10;;;;;;;9.05;2.60;;;;;;;19.09;47.56;101097.53;4983753;28;20061;-66
2022/12/24 09:23:39;;;;;;;13.23;2.53;;;;;;;19.08;47.59;101103.75;4987300;28;20125;-66
2022/12/24 09:26:11;;;;;;;8.80;2.53;;;;;;;19.08;47.67;101109.03;5002842;28;20064;-65
2022/12/24 09:28:36;;;;;;;8.50;2.50;;;;;;;19.12;47.35;101114.91;5001240;28;20025;-66
2022/12/24 09:31:03;;;;;;;11.75;2.85;;;;;;;19.12;47.64;101112.28;4989288;28;20088;-67
2022/12/24 09:33:30;;;;;;;8.68;2.40;;;;;;;19.10;47.51;101115.03;4990517;28;20110;-66
2022/12/24 09:35:56;;;;;;;12.90;3.05;;;;;;;19.14;47.67;101120.94;5000547;28;20868;-67
2022/12/24 09:38:21;;;;;;;11.65;2.60;;;;;;;19.14;47.69;101120.94;5002700;28;20041;-66
2022/12/24 09:40:48;;;;;;;10.73;2.38;;;;;;;19.14;47.72;101123.56;4991908;28;20035;-67
2022/12/24 09:43:16;;;;;;;9.40;2.72;;;;;;;19.12;47.82;101125.47;4997130;28;20081;-67
2022/12/24 09:45:57;;;;;;;9.70;2.47;;;;;;;19.13;47.43;101122.72;4994413;28;20044;-67
2022/12/24 09:48:28;;;;;;;11.43;2.55;;;;;;;19.14;47.54;101126.22;4983256;28;20119;-65
2022/12/24 09:51:07;;;;;;;10.00;2.45;;;;;;;19.16;47.66;101140.13;4994025;28;20034;-67
2022/12/24 09:53:42;;;;;;;11.02;2.83;;;;;;;19.17;47.73;101147.09;4998940;28;20092;-66
2022/12/24 09:56:18;;;;;;;12.88;2.45;;;;;;;19.16;47.88;101140.97;4991340;28;20220;-68
2022/12/24 09:58:57;;;;;;;9.45;2.83;;;;;;;19.17;47.76;101145.28;4983699;28;20031;-70
2022/12/24 10:01:22;;;;;;;11.25;2.55;;;;;;;19.17;47.29;101147.09;4998991;28;20445;-69
2022/12/24 10:03:47;;;;;;;10.60;2.88;;;;;;;19.16;47.53;101156.81;4998347;28;20120;-69
2022/12/24 10:06:21;;;;;;;10.65;3.05;;;;;;;19.18;47.38;101156.69;4990409;28;20130;-68
2022/12/24 10:09:04;;;;;;;11.80;2.75;;;;;;;19.17;47.58;101155.03;4994583;28;20026;-68
2022/12/24 10:11:53;;;;;;;9.73;3.60;;;;;;;19.21;47.57;101159.09;4983537;28;20537;-67
2022/12/24 10:14:37;;;;;;;10.20;3.17;;;;;;;19.21;47.67;101159.09;4983343;28;20034;-69
2022/12/24 10:17:36;;;;;;;10.60;2.85;;;;;;;19.20;47.74;101160.91;4991984;28;20029;-67
2022/12/24 10:20:17;;;;;;;11.30;2.75;;;;;;;19.21;47.89;101159.91;4990777;28;20037;-71
2022/12/24 10:23:06;;;;;;;11.05;2.88;;;;;;;19.26;47.76;101156.06;4987236;28;20034;-70
2022/12/24 10:25:41;;;;;;;9.13;2.38;;;;;;;19.27;47.48;101148.03;4977987;28;20073;-68
2022/12/24 10:28:28;;;;;;;8.88;2.80;;;;;;;19.29;47.57;101151.38;4993450;28;20463;-69
2022/12/24 10:31:00;;;;;;;9.13;2.42;;;;;;;19.30;47.68;101147.78;5001183;28;20060;-69
2022/12/24 10:33:34;;;;;;;9.50;2.72;;;;;;;19.28;47.86;101144.44;4987820;28;20030;-66
2022/12/24 10:35:59;;;;;;;10.00;2.88;;;;;;;19.31;47.68;101143.31;4990424;28;20060;-70
2022/12/24 10:38:26;;;;;;;11.35;3.10;;;;;;;19.26;47.60;101148.97;4988288;28;20054;-71
2022/12/24 10:40:54;;;;;;;9.85;3.05;;;;;;;19.32;47.90;101156.41;5000649;28;20037;-69
2022/12/24 10:43:23;;;;;;;10.65;3.55;;;;;;;19.36;47.63;101159.66;4995916;28;20030;-68
2022/12/24 10:45:52;;;;;;;10.77;2.80;;;;;;;19.38;47.61;101161.19;4988092;28;20779;-68
2022/12/24 10:48:31;;;;;;;12.02;2.95;;;;;;;19.39;47.43;101164.66;4988305;28;20052;-69
2022/12/24 10:51:03;;;;;;;9.98;2.53;;;;;;;19.38;47.74;101166.47;4996357;28;20049;-72
2022/12/24 10:53:39;;;;;;;12.00;2.60;;;;;;;19.37;47.54;101156.88;4999984;28;20034;-68
2022/12/24 10:56:08;;;;;;;10.98;2.90;;;;;;;19.33;47.47;101155.44;5000942;28;20720;-74
2022/12/24 10:58:34;;;;;;;11.30;3.30;;;;;;;19.34;47.69;101161.56;4993037;28;20085;-69
2022/12/24 11:00:59;;;;;;;11.32;3.17;;;;;;;19.38;47.53;101163.00;4981486;28;20112;-70
2022/12/24 11:03:29;;;;;;;11.00;2.95;;;;;;;19.37;47.62;101163.97;4988336;28;20561;-70
2022/12/24 11:06:22;;;;;;;12.68;2.85;;;;;;;19.38;47.67;101161.19;5000418;28;20095;-69
2022/12/24 11:08:47;;;;;;;10.48;3.15;;;;;;;19.40;47.43;101172.47;4999259;28;20095;-69
2022/12/24 11:11:14;;;;;;;9.48;2.97;;;;;;;19.36;47.44;101157.84;5000461;28;20042;-72
2022/12/24 11:13:44;;;;;;;9.80;2.70;;;;;;;19.39;47.28;101167.31;5000225;28;20109;-73
2022/12/24 11:16:21;;;;;;;10.68;3.10;;;;;;;19.39;47.36;101164.66;4994592;28;20165;-70
2022/12/24 11:18:49;;;;;;;13.77;3.00;;;;;;;19.35;47.38;101164.09;4992927;28;20398;-69
2022/12/24 11:21:21;;;;;;;11.48;3.10;;;;;;;19.39;47.37;101164.66;4981175;28;20049;-65
2022/12/24 11:23:54;;;;;;;10.55;3.17;;;;;;;19.40;47.64;101172.47;4983745;28;20061;-73
2022/12/24 11:26:28;;;;;;;9.68;3.35;;;;;;;19.40;47.63;101166.34;5000308;28;20034;-74
2022/12/24 11:29:15;;;;;;;10.93;2.95;;;;;;;19.44;47.68;101175.72;4986771;28;20027;-67
2022/12/24 11:31:42;;;;;;;9.68;3.10;;;;;;;19.45;47.63;101177.38;4984325;28;20785;-68
2022/12/24 11:34:22;;;;;;;11.75;3.40;;;;;;;19.44;47.13;101178.38;4981619;28;20034;-68
2022/12/24 11:36:49;;;;;;;8.27;2.85;;;;;;;19.35;47.40;101160.63;4981801;28;20030;-69